Time;durP1;ratioP1;P1;durP2;ratioP2;P2;SDS_P1;SDS_P2;PMS_P1;PMS_P2;Temp;Humidity;BMP_temperature;BMP_pressure;BME280_temperature;BME280_humidity;BME280_pressure;Samples;Min_cycle;Max_cycle;Signal;HPM_P1;HPM_P2
2023/09/06 00:00:15;;;;;;;18.50;4.33;;;;;;;18.67;100.00;101403.78;5913236;29;20053;-67
2023/09/06 00:03:12;;;;;;;4.60;1.80;;;;;;;18.63;100.00;101413.22;5913621;29;20037;-69
2023/09/06 00:06:08;;;;;;;2.90;1.42;;;;;;;18.55;100.00;101400.69;5913042;29;20040;-67
2023/09/06 00:09:04;;;;;;;4.25;1.67;;;;;;;18.58;100.00;101407.53;5913646;29;20071;-67
2023/09/06 00:11:59;;;;;;;5.72;1.70;;;;;;;18.68;100.00;101403.59;5913971;29;20055;-66
2023/09/06 00:14:55;;;;;;;5.00;1.75;;;;;;;18.58;100.00;101394.97;5918699;29;20495;-67
2023/09/06 00:17:50;;;;;;;4.70;1.80;;;;;;;18.59;100.00;101409.22;5917640;29;20041;-66
2023/09/06 00:20:45;;;;;;;3.43;1.60;;;;;;;18.50;100.00;101404.94;5913008;29;20041;-66
2023/09/06 00:23:40;;;;;;;3.47;1.67;;;;;;;18.45;100.00;101413.50;5912429;29;20039;-66
2023/09/06 00:26:36;;;;;;;3.03;1.57;;;;;;;18.42;100.00;101416.56;5912672;29;20083;-67
2023/09/06 00:29:32;;;;;;;4.20;1.87;;;;;;;18.28;100.00;101414.63;5912956;29;20388;-70
2023/09/06 00:32:28;;;;;;;4.43;1.63;;;;;;;18.39;100.00;101414.22;5912563;29;20032;-67
2023/09/06 00:35:26;;;;;;;2.73;1.70;;;;;;;18.47;100.00;101424.91;5912141;29;20544;-68
2023/09/06 00:38:21;;;;;;;4.57;1.63;;;;;;;18.37;100.00;101417.06;5912969;29;20036;-66
2023/09/06 00:41:17;;;;;;;3.80;1.80;;;;;;;18.18;100.00;101395.25;5912522;29;20075;-67
2023/09/06 00:44:12;;;;;;;3.27;1.47;;;;;;;18.12;100.00;101398.63;5911795;29;20047;-67
2023/09/06 00:47:07;;;;;;;4.60;1.70;;;;;;;18.11;100.00;101413.91;5912452;29;20040;-68
2023/09/06 00:50:04;;;;;;;4.67;2.00;;;;;;;17.96;100.00;101409.47;5895927;29;20040;-67
2023/09/06 00:52:59;;;;;;;3.53;1.52;;;;;;;17.95;100.00;101414.00;5907971;29;20268;-66
2023/09/06 00:55:55;;;;;;;4.30;1.80;;;;;;;17.97;100.00;101411.13;5906882;29;20474;-66
2023/09/06 00:58:50;;;;;;;3.63;1.83;;;;;;;17.91;100.00;101425.28;5895520;29;20345;-69
2023/09/06 01:01:46;;;;;;;2.90;1.73;;;;;;;17.82;100.00;101417.28;5912028;29;20040;-69
2023/09/06 01:04:41;;;;;;;3.53;1.75;;;;;;;17.85;100.00;101424.94;5911406;29;20045;-67
2023/09/06 01:07:38;;;;;;;2.72;1.65;;;;;;;17.59;100.00;101407.47;5895279;29;20047;-68
2023/09/06 01:10:34;;;;;;;2.53;1.67;;;;;;;17.59;100.00;101423.56;5895678;29;20040;-66
2023/09/06 01:13:29;;;;;;;6.82;2.22;;;;;;;17.56;100.00;101403.28;5911063;29;20040;-66
2023/09/06 01:16:32;;;;;;;4.00;1.90;;;;;;;17.60;100.00;101415.38;5912711;29;20560;-67
2023/09/06 01:19:29;;;;;;;3.22;1.77;;;;;;;17.45;100.00;101406.31;5904333;29;20131;-67
2023/09/06 01:22:28;;;;;;;4.13;1.88;;;;;;;17.52;100.00;101420.72;5894938;29;20473;-69
2023/09/06 01:25:23;;;;;;;5.35;1.70;;;;;;;17.37;100.00;101411.72;5894560;29;20044;-67
2023/09/06 01:28:19;;;;;;;3.53;1.83;;;;;;;17.42;100.00;101412.03;5911510;29;20112;-70
2023/09/06 01:31:15;;;;;;;5.88;1.67;;;;;;;17.39;100.00;101407.03;5911360;29;20080;-69
2023/09/06 01:34:10;;;;;;;3.28;1.70;;;;;;;17.37;100.00;101416.25;5911021;29;20036;-69
2023/09/06 01:37:05;;;;;;;4.17;1.93;;;;;;;17.26;100.00;101387.97;5911608;29;20040;-69
2023/09/06 01:40:00;;;;;;;3.90;1.90;;;;;;;17.26;100.00;101401.38;5910976;29;20506;-68
2023/09/06 01:42:58;;;;;;;4.70;1.60;;;;;;;17.39;100.00;101411.56;5911524;29;20490;-68
2023/09/06 01:45:54;;;;;;;3.63;2.03;;;;;;;17.35;100.00;101411.06;5910802;29;20036;-68
2023/09/06 01:48:49;;;;;;;3.78;1.95;;;;;;;17.26;100.00;101390.63;5910911;29;20044;-67
2023/09/06 01:51:44;;;;;;;4.17;2.10;;;;;;;17.20;100.00;101418.97;5910607;29;20044;-68
2023/09/06 01:54:40;;;;;;;3.77;2.30;;;;;;;16.96;100.00;101407.50;5910648;29;20043;-69
2023/09/06 01:57:35;;;;;;;4.90;2.00;;;;;;;16.83;100.00;101399.97;5910960;29;20041;-68
2023/09/06 02:00:31;;;;;;;5.37;1.87;;;;;;;17.04;100.00;101424.38;5911193;29;20034;-68
2023/09/06 02:03:29;;;;;;;3.72;1.88;;;;;;;17.19;100.00;101424.53;5909934;29;20296;-68
2023/09/06 02:06:25;;;;;;;8.10;1.90;;;;;;;17.15;100.00;101420.50;5910822;29;20072;-68
2023/09/06 02:09:20;;;;;;;2.60;1.60;;;;;;;17.08;100.00;101416.84;5911067;29;20044;-69
2023/09/06 02:12:16;;;;;;;6.67;2.10;;;;;;;17.08;100.00;101424.88;5910697;29;20296;-69
2023/09/06 02:15:14;;;;;;;5.40;1.90;;;;;;;17.07;100.00;101412.47;5914666;29;20043;-69
2023/09/06 02:18:15;;;;;;;6.07;1.98;;;;;;;17.06;100.00;101406.31;5918786;29;20043;-70
2023/09/06 02:21:10;;;;;;;5.43;2.40;;;;;;;17.02;100.00;101420.19;5910636;29;20729;-68
2023/09/06 02:24:08;;;;;;;3.50;2.07;;;;;;;16.89;100.00;101427.91;5909953;29;20088;-68
2023/09/06 02:27:03;;;;;;;4.75;1.80;;;;;;;17.00;100.00;101430.25;5910540;29;20035;-68
2023/09/06 02:29:59;;;;;;;3.13;1.83;;;;;;;16.89;100.00;101417.19;5910660;29;20033;-69
2023/09/06 02:32:55;;;;;;;3.88;2.20;;;;;;;16.84;100.00;101433.78;5910175;29;20356;-69
2023/09/06 02:35:51;;;;;;;4.78;2.28;;;;;;;16.66;100.00;101442.00;5910095;29;20485;-68
2023/09/06 02:38:47;;;;;;;4.50;2.33;;;;;;;16.73;100.00;101435.97;5910247;29;20047;-68
2023/09/06 02:41:42;;;;;;;3.90;2.00;;;;;;;16.67;100.00;101432.97;5910273;29;20044;-68
2023/09/06 02:44:37;;;;;;;3.57;2.03;;;;;;;16.80;100.00;101442.31;5909431;29;20433;-69
2023/09/06 02:47:34;;;;;;;6.43;2.20;;;;;;;16.82;100.00;101448.38;5912204;29;20119;-68
2023/09/06 02:50:29;;;;;;;6.80;2.22;;;;;;;16.85;100.00;101451.53;5918206;29;20783;-70
2023/09/06 02:53:26;;;;;;;4.37;2.27;;;;;;;16.84;100.00;101451.72;5918890;29;20036;-69
2023/09/06 02:56:22;;;;;;;6.47;2.40;;;;;;;16.75;100.00;101439.31;5928063;29;20040;-67
2023/09/06 02:59:19;;;;;;;4.95;2.22;;;;;;;16.61;100.00;101447.03;5917700;29;20080;-68
2023/09/06 03:02:15;;;;;;;4.75;1.65;;;;;;;16.56;100.00;101451.19;5917603;29;20029;-68
2023/09/06 03:05:11;;;;;;;3.88;2.15;;;;;;;16.65;100.00;101458.25;5917225;29;20043;-67
2023/09/06 03:08:06;;;;;;;5.78;2.20;;;;;;;16.49;100.00;101466.25;5917480;29;20040;-67
2023/09/06 03:11:02;;;;;;;5.60;2.00;;;;;;;16.47;100.00;101462.91;5917978;29;20040;-67
2023/09/06 03:13:58;;;;;;;6.85;2.20;;;;;;;16.45;100.00;101473.75;5916651;29;20511;-67
2023/09/06 03:16:53;;;;;;;6.70;2.63;;;;;;;16.34;100.00;101458.00;5917199;29;20046;-68
2023/09/06 03:19:53;;;;;;;5.90;2.40;;;;;;;16.30;100.00;101467.38;5917498;29;20064;-67
2023/09/06 03:22:51;;;;;;;5.32;2.70;;;;;;;16.25;100.00;101483.06;5917875;29;20292;-67
2023/09/06 03:25:48;;;;;;;4.72;2.95;;;;;;;16.01;100.00;101457.09;5916955;29;20099;-68
2023/09/06 03:28:43;;;;;;;4.57;2.20;;;;;;;16.09;100.00;101467.81;5900729;29;20064;-65
2023/09/06 03:31:42;;;;;;;4.20;2.13;;;;;;;16.07;100.00;101460.97;5917320;29;20507;-67
2023/09/06 03:34:40;;;;;;;3.92;2.45;;;;;;;15.95;100.00;101462.28;5916364;29;20044;-68
2023/09/06 03:37:37;;;;;;;4.80;2.63;;;;;;;16.02;100.00;101465.97;5917501;29;20156;-68
2023/09/06 03:40:35;;;;;;;7.30;2.80;;;;;;;16.03;100.00;101478.34;5917645;29;20036;-68
2023/09/06 03:43:32;;;;;;;6.20;2.35;;;;;;;15.89;100.00;101489.66;5916107;29;20060;-70
2023/09/06 03:46:28;;;;;;;5.50;2.38;;;;;;;15.90;100.00;101485.97;5917296;29;20412;-66
2023/09/06 03:49:24;;;;;;;4.90;2.08;;;;;;;15.81;100.00;101478.94;5917082;29;20506;-69
2023/09/06 03:52:19;;;;;;;4.73;2.57;;;;;;;15.89;100.00;101485.16;5926016;29;20048;-68
2023/09/06 03:55:16;;;;;;;6.45;2.75;;;;;;;15.79;100.00;101480.94;5933856;29;20051;-68
2023/09/06 03:58:12;;;;;;;5.80;2.75;;;;;;;15.69;100.00;101488.22;5916583;29;20564;-70
2023/09/06 04:01:10;;;;;;;5.70;2.80;;;;;;;15.49;100.00;101477.78;5908150;29;20032;-68
2023/09/06 04:04:08;;;;;;;7.32;2.78;;;;;;;15.52;100.00;101475.81;5912793;29;20146;-67
2023/09/06 04:07:03;;;;;;;5.03;2.85;;;;;;;15.45;100.00;101487.09;5913363;29;20048;-67
2023/09/06 04:10:01;;;;;;;5.10;3.03;;;;;;;15.40;100.00;101492.09;5913604;29;20032;-69
2023/09/06 04:12:56;;;;;;;5.68;2.78;;;;;;;15.44;100.00;101504.13;5913655;29;20464;-68
2023/09/06 04:15:53;;;;;;;5.65;3.25;;;;;;;15.26;100.00;101492.66;5912794;29;20037;-68
2023/09/06 04:18:48;;;;;;;4.67;2.83;;;;;;;15.20;100.00;101497.78;5912312;29;20068;-69
2023/09/06 04:21:47;;;;;;;7.97;3.07;;;;;;;15.28;100.00;101485.31;5912815;29;20504;-69
2023/09/06 04:24:43;;;;;;;5.60;3.20;;;;;;;15.47;100.00;101495.81;5912343;29;20045;-68
2023/09/06 04:27:39;;;;;;;4.60;2.43;;;;;;;15.30;100.00;101493.19;5913553;29;20378;-69
2023/09/06 04:30:40;;;;;;;4.32;2.55;;;;;;;15.35;100.00;101497.06;5913199;29;20289;-69
2023/09/06 04:33:36;;;;;;;6.93;3.65;;;;;;;15.30;100.00;101480.63;5914394;29;20189;-67
2023/09/06 04:36:31;;;;;;;5.15;2.85;;;;;;;15.37;100.00;101484.38;5913047;29;20485;-67
2023/09/06 04:39:30;;;;;;;6.38;3.25;;;;;;;15.27;100.00;101485.47;5913881;29;20056;-68
2023/09/06 04:42:25;;;;;;;5.07;3.30;;;;;;;15.21;100.00;101499.47;5912775;29;20480;-67
2023/09/06 04:45:21;;;;;;;7.63;3.85;;;;;;;15.16;100.00;101494.59;5912110;29;20047;-69
2023/09/06 04:48:16;;;;;;;6.13;3.10;;;;;;;15.28;100.00;101485.31;5912856;29;20048;-67
2023/09/06 04:51:13;;;;;;;7.53;3.17;;;;;;;15.31;100.00;101489.50;5912630;29;20335;-68
2023/09/06 04:54:09;;;;;;;4.95;3.25;;;;;;;15.27;100.00;101494.31;5911089;29;20477;-69
2023/09/06 04:57:04;;;;;;;6.78;3.15;;;;;;;15.35;100.00;101502.41;5912665;29;20041;-67
2023/09/06 05:00:00;;;;;;;4.60;2.70;;;;;;;15.34;100.00;101503.41;5863528;29;20056;-68
2023/09/06 05:02:56;;;;;;;9.20;4.03;;;;;;;15.32;100.00;101499.19;5911042;29;20137;-67
2023/09/06 05:05:52;;;;;;;7.70;3.92;;;;;;;15.23;100.00;101509.00;5911792;29;20067;-68
2023/09/06 05:08:47;;;;;;;6.50;3.33;;;;;;;15.22;100.00;101509.97;5911608;29;20457;-67
2023/09/06 05:11:42;;;;;;;11.60;3.90;;;;;;;15.04;100.00;101487.81;5911512;29;20291;-70
2023/09/06 05:14:38;;;;;;;8.77;3.63;;;;;;;15.13;100.00;101508.25;5911298;29;20477;-68
2023/09/06 05:17:33;;;;;;;6.60;3.90;;;;;;;15.12;100.00;101501.22;5930149;29;20051;-68
2023/09/06 05:20:35;;;;;;;45.50;7.00;;;;;;;15.28;100.00;101508.50;5911934;29;20029;-68
2023/09/06 05:23:30;;;;;;;1706.43;267.52;;;;;;;15.31;100.00;101505.53;5910765;29;20059;-69
2023/09/06 05:26:25;;;;;;;32.20;7.88;;;;;;;15.25;100.00;101485.63;5911469;29;20064;-69
2023/09/06 05:29:21;;;;;;;8.73;3.90;;;;;;;15.54;100.00;101488.00;5911046;29;20048;-67
2023/09/06 05:32:18;;;;;;;8.33;4.73;;;;;;;15.84;100.00;101502.69;5912365;29;20040;-68
2023/09/06 05:35:14;;;;;;;6.10;3.63;;;;;;;16.30;100.00;101504.88;5922512;29;20040;-68
2023/09/06 05:38:09;;;;;;;16.57;5.13;;;;;;;16.75;100.00;101506.28;5913443;29;20041;-69
2023/09/06 05:41:05;;;;;;;5.93;3.63;;;;;;;16.93;100.00;101498.94;5911268;29;20052;-67
2023/09/06 05:44:00;;;;;;;7.95;3.75;;;;;;;16.63;100.00;101503.94;5893391;29;20380;-67
2023/09/06 05:46:55;;;;;;;9.85;4.25;;;;;;;17.08;100.00;101489.19;5910395;29;20480;-67
2023/09/06 05:49:55;;;;;;;9.97;3.80;;;;;;;17.33;100.00;101514.97;5911485;29;20400;-69
2023/09/06 05:52:51;;;;;;;7.05;3.60;;;;;;;17.69;100.00;101510.06;5911131;29;20374;-69
2023/09/06 05:55:46;;;;;;;7.30;4.17;;;;;;;18.38;100.00;101517.28;5910191;29;20048;-69
2023/09/06 05:58:42;;;;;;;12.70;3.90;;;;;;;18.49;100.00;101524.97;5910721;29;20044;-69
2023/09/06 06:01:37;;;;;;;8.35;3.63;;;;;;;18.35;100.00;101531.91;5911243;29;20120;-68
2023/09/06 06:04:33;;;;;;;8.13;3.73;;;;;;;18.94;100.00;101519.59;5910302;29;20055;-68
2023/09/06 06:07:28;;;;;;;8.88;4.10;;;;;;;18.21;100.00;101531.81;5910659;29;20028;-69
2023/09/06 06:10:23;;;;;;;12.40;3.93;;;;;;;18.19;100.00;101539.19;5912039;29;20503;-67
2023/09/06 06:13:20;;;;;;;7.40;3.80;;;;;;;18.43;100.00;101521.13;5891685;29;20048;-68
2023/09/06 06:16:16;;;;;;;13.52;3.78;;;;;;;18.61;100.00;101523.56;5910079;29;20405;-69
2023/09/06 06:19:11;;;;;;;19.60;4.57;;;;;;;19.39;100.00;101540.25;5909980;29;20139;-70
2023/09/06 06:22:06;;;;;;;12.07;3.17;;;;;;;19.26;100.00;101539.16;5915506;29;20499;-70
2023/09/06 06:25:02;;;;;;;9.73;3.13;;;;;;;19.23;100.00;101542.22;5909460;29;20103;-69
2023/09/06 06:27:57;;;;;;;11.32;3.33;;;;;;;19.60;99.15;101526.91;5910057;29;20043;-69
2023/09/06 06:30:52;;;;;;;10.27;3.53;;;;;;;19.51;100.00;101544.13;5909834;29;20047;-68
2023/09/06 06:33:48;;;;;;;8.10;3.27;;;;;;;19.56;100.00;101540.91;5908731;29;20273;-69
2023/09/06 06:36:44;;;;;;;9.13;2.97;;;;;;;19.74;99.10;101541.38;5910960;29;20044;-68
2023/09/06 06:39:39;;;;;;;10.75;3.03;;;;;;;19.92;99.49;101547.22;5911782;29;20048;-68
2023/09/06 06:42:34;;;;;;;18.10;4.63;;;;;;;20.03;96.59;101533.28;5909796;29;20037;-68
2023/09/06 06:45:30;;;;;;;12.00;4.03;;;;;;;20.03;96.93;101543.25;5908875;29;20051;-69
2023/09/06 06:48:25;;;;;;;9.07;3.80;;;;;;;20.15;95.63;101547.97;5909538;29;20495;-69
2023/09/06 06:51:20;;;;;;;12.00;4.27;;;;;;;20.27;94.69;101544.81;5909833;29;20040;-68
2023/09/06 06:54:16;;;;;;;12.95;4.47;;;;;;;20.36;94.46;101557.13;5914690;29;20129;-69
2023/09/06 06:57:12;;;;;;;11.50;4.30;;;;;;;20.39;95.08;101552.22;5909589;29;20120;-68
2023/09/06 07:00:11;;;;;;;15.02;5.22;;;;;;;20.49;93.71;101549.22;5909670;29;20425;-67
2023/09/06 07:03:08;;;;;;;18.45;5.28;;;;;;;20.72;91.72;101556.13;5909569;29;20025;-68
2023/09/06 07:06:05;;;;;;;18.98;5.55;;;;;;;20.90;90.13;101561.06;5909265;29;20041;-67
2023/09/06 07:09:03;;;;;;;47.03;9.98;;;;;;;21.14;89.67;101543.69;5909599;29;20047;-69
2023/09/06 07:11:58;;;;;;;42.83;8.07;;;;;;;21.53;87.46;101562.03;5909375;29;20037;-68
2023/09/06 07:14:55;;;;;;;111.07;18.65;;;;;;;21.72;84.75;101553.25;5908629;29;20047;-68
2023/09/06 07:17:50;;;;;;;34.00;8.02;;;;;;;21.94;85.99;101568.38;5908748;29;20061;-68
2023/09/06 07:20:47;;;;;;;13.20;5.93;;;;;;;22.09;84.91;101560.97;5909458;29;20098;-69
2023/09/06 07:23:42;;;;;;;18.05;6.53;;;;;;;22.40;83.89;101560.47;5908475;29;20033;-67
2023/09/06 07:26:38;;;;;;;19.60;7.53;;;;;;;22.40;83.08;101574.81;5907800;29;20037;-69
2023/09/06 07:29:34;;;;;;;22.50;7.67;;;;;;;22.51;81.20;101571.53;5909016;29;20048;-69
2023/09/06 07:32:30;;;;;;;33.42;11.25;;;;;;;22.37;81.87;101564.41;5907856;29;20025;-66
2023/09/06 07:35:25;;;;;;;24.83;9.02;;;;;;;22.50;83.21;101577.97;5912479;29;20045;-66
2023/09/06 07:38:20;;;;;;;21.13;6.30;;;;;;;22.58;82.58;101576.16;5918325;29;20040;-69
2023/09/06 07:41:16;;;;;;;16.10;6.20;;;;;;;22.41;82.79;101560.28;5918331;29;20041;-68
2023/09/06 07:44:12;;;;;;;20.08;6.03;;;;;;;22.76;82.77;101574.56;5919843;29;20028;-66
2023/09/06 07:47:07;;;;;;;17.80;7.13;;;;;;;23.13;79.76;101559.63;5913134;29;20048;-66
2023/09/06 07:50:06;;;;;;;13.00;4.60;;;;;;;22.83;79.11;101558.34;5912334;29;20281;-69
2023/09/06 07:53:01;;;;;;;43.67;14.95;;;;;;;23.33;79.14;101563.16;5912568;29;20043;-67
2023/09/06 07:55:56;;;;;;;18.27;5.93;;;;;;;23.60;77.49;101562.13;5911361;29;20084;-67
2023/09/06 07:58:51;;;;;;;20.47;5.80;;;;;;;23.67;74.70;101568.38;5914032;29;20029;-68
2023/09/06 08:01:47;;;;;;;13.27;4.73;;;;;;;23.62;75.27;101581.72;5923890;29;20047;-69
2023/09/06 08:04:42;;;;;;;29.10;10.73;;;;;;;23.91;72.99;101583.13;5911897;29;20041;-69
2023/09/06 08:07:38;;;;;;;11.73;3.90;;;;;;;23.84;72.53;101579.59;5915145;29;20291;-69
2023/09/06 08:10:34;;;;;;;13.48;4.18;;;;;;;24.29;71.59;101561.56;5914708;29;20477;-67
2023/09/06 08:13:30;;;;;;;11.32;3.85;;;;;;;24.34;68.71;101572.59;5920057;29;20088;-68
2023/09/06 08:16:25;;;;;;;21.20;6.60;;;;;;;24.52;68.16;101578.13;5927185;29;20396;-67
2023/09/06 08:19:21;;;;;;;19.33;4.55;;;;;;;25.13;66.21;101577.59;5920084;29;20051;-69
2023/09/06 08:22:16;;;;;;;12.37;4.23;;;;;;;25.25;63.55;101584.78;5912753;29;20033;-70
2023/09/06 08:25:15;;;;;;;17.27;5.10;;;;;;;25.48;63.18;101586.94;5910795;29;20111;-69
2023/09/06 08:28:14;;;;;;;21.65;4.60;;;;;;;25.36;62.20;101580.50;5912286;29;20041;-68
2023/09/06 08:31:09;;;;;;;15.73;4.13;;;;;;;25.65;61.55;101577.16;5910653;29;20144;-68
2023/09/06 08:34:04;;;;;;;13.73;4.20;;;;;;;25.71;62.36;101576.25;5911472;29;20452;-69
2023/09/06 08:37:00;;;;;;;15.43;5.27;;;;;;;26.00;60.91;101589.13;5912149;29;20309;-67
2023/09/06 08:39:56;;;;;;;14.80;5.00;;;;;;;26.34;59.37;101584.16;5914462;29;20137;-69
2023/09/06 08:42:52;;;;;;;10.68;3.05;;;;;;;26.06;60.27;101575.69;5914432;29;20043;-68
2023/09/06 08:45:48;;;;;;;8.32;3.50;;;;;;;25.94;58.54;101567.44;5909609;29;20089;-70
2023/09/06 08:48:45;;;;;;;11.40;3.65;;;;;;;25.93;58.21;101568.50;5911754;29;20032;-68
2023/09/06 08:51:42;;;;;;;13.85;4.65;;;;;;;26.08;59.04;101566.25;5911812;29;20040;-68
2023/09/06 08:54:37;;;;;;;10.50;3.97;;;;;;;26.31;56.78;101560.94;5910748;29;20033;-69
2023/09/06 08:57:32;;;;;;;11.27;3.60;;;;;;;26.38;56.22;101579.94;5894333;29;20043;-70
2023/09/06 09:00:28;;;;;;;58.73;8.50;;;;;;;26.91;55.36;101574.59;5926062;29;20057;-69
2023/09/06 09:03:23;;;;;;;17.03;4.70;;;;;;;26.83;56.16;101575.75;5909277;29;20712;-69
2023/09/06 09:06:18;;;;;;;20.40;4.67;;;;;;;27.49;54.41;101572.84;5911454;29;20648;-70
2023/09/06 09:09:17;;;;;;;7.17;2.50;;;;;;;27.20;50.83;101571.81;5910993;29;20036;-69
2023/09/06 09:12:14;;;;;;;6.43;2.42;;;;;;;27.32;50.72;101581.91;5911343;29;20029;-70
2023/09/06 09:15:10;;;;;;;7.07;2.13;;;;;;;27.18;48.76;101568.50;5909463;29;20042;-71
2023/09/06 09:18:15;;;;;;;20.15;3.20;;;;;;;27.55;50.35;101571.06;5909603;29;20045;-68
2023/09/06 09:21:12;;;;;;;14.77;3.53;;;;;;;27.53;48.80;101559.59;5911049;29;20036;-70
2023/09/06 09:24:07;;;;;;;4.93;1.48;;;;;;;27.42;46.91;101566.66;5909279;29;20044;-68
2023/09/06 09:27:03;;;;;;;4.57;1.53;;;;;;;27.55;46.55;101576.53;5911281;29;20082;-69
2023/09/06 09:30:02;;;;;;;5.47;1.90;;;;;;;27.72;48.26;101575.56;5910125;29;20476;-70
2023/09/06 09:32:59;;;;;;;11.05;2.10;;;;;;;27.91;48.06;101578.16;5908794;29;20510;-69
2023/09/06 09:35:57;;;;;;;16.23;2.50;;;;;;;27.68;46.84;101581.72;5909598;29;20044;-69
2023/09/06 09:38:53;;;;;;;7.75;1.88;;;;;;;27.66;47.01;101562.06;5911132;29;20141;-69
2023/09/06 09:41:48;;;;;;;5.68;1.60;;;;;;;27.62;46.59;101574.50;5908366;29;20123;-70
2023/09/06 09:44:59;;;;;;;3.97;1.53;;;;;;;27.65;46.61;101574.03;5910237;29;20045;-68
2023/09/06 09:47:55;;;;;;;4.15;1.52;;;;;;;27.49;46.76;101561.94;5910239;29;20047;-68
2023/09/06 09:50:52;;;;;;;6.05;1.50;;;;;;;27.50;46.14;101579.13;5914260;29;20407;-68
2023/09/06 09:53:47;;;;;;;3.97;1.40;;;;;;;27.91;46.81;101538.06;5913538;29;20064;-68
2023/09/06 09:56:51;;;;;;;7.10;1.60;;;;;;;28.13;46.14;101563.66;5909645;29;20047;-68
2023/09/06 09:59:49;;;;;;;2.58;1.30;;;;;;;28.02;46.65;101574.59;5910782;29;20473;-69
2023/09/06 10:02:47;;;;;;;5.25;1.50;;;;;;;28.16;43.52;101557.72;5907780;29;20036;-69
2023/09/06 10:05:43;;;;;;;4.10;1.70;;;;;;;27.71;44.12;101559.44;5893090;29;20048;-69
2023/09/06 10:08:39;;;;;;;2.30;1.30;;;;;;;27.68;45.24;101559.91;5925224;29;20688;-68
2023/09/06 10:11:35;;;;;;;8.95;1.50;;;;;;;27.89;44.49;101562.03;5889845;29;20048;-69
2023/09/06 10:14:32;;;;;;;5.90;2.00;;;;;;;28.05;44.88;101561.31;5909782;29;20519;-69
2023/09/06 10:17:27;;;;;;;3.05;1.63;;;;;;;27.98;42.41;101555.16;5909897;29;20066;-68
2023/09/06 10:20:26;;;;;;;3.83;1.83;;;;;;;27.86;42.66;101557.03;5909665;29;21427;-69
2023/09/06 10:23:22;;;;;;;;;;;;;;;27.96;42.88;101568.19;5893664;29;20496;-68
2023/09/06 10:26:34;;;;;;;5.40;1.77;;;;;;;27.88;43.47;101556.81;5908862;29;19951;-69
2023/09/06 10:29:31;;;;;;;3.65;1.40;;;;;;;28.01;43.38;101565.56;5909011;29;20047;-69
2023/09/06 10:32:38;;;;;;;5.10;1.58;;;;;;;28.23;43.08;101553.00;5909372;29;20036;-68
2023/09/06 10:35:41;;;;;;;3.05;1.58;;;;;;;28.45;42.64;101544.13;5908822;29;20518;-71
2023/09/06 10:38:55;;;;;;;4.97;1.80;;;;;;;28.83;43.46;101560.72;5914599;29;20052;-68
2023/09/06 10:42:09;;;;;;;4.13;1.63;;;;;;;29.05;42.31;101550.72;5914316;29;20048;-69
2023/09/06 10:45:04;;;;;;;5.47;2.00;;;;;;;29.03;43.03;101547.41;5909057;29;20396;-70
2023/09/06 10:48:11;;;;;;;7.43;2.30;;;;;;;29.41;42.90;101543.94;5909470;29;20032;-67
2023/09/06 10:51:08;;;;;;;5.95;1.95;;;;;;;29.17;41.39;101536.97;5919903;29;20400;-67
2023/09/06 10:54:03;;;;;;;5.72;2.00;;;;;;;28.75;41.34;101534.63;5918461;29;20128;-68
2023/09/06 10:57:01;;;;;;;3.97;1.57;;;;;;;28.91;40.72;101533.84;5908069;29;20609;-68
2023/09/06 10:59:58;;;;;;;6.57;1.75;;;;;;;29.15;41.59;101550.88;5910618;29;20320;-71
2023/09/06 11:03:13;;;;;;;4.63;1.60;;;;;;;29.05;40.32;101509.75;5908724;29;20033;-70
2023/09/06 11:06:09;;;;;;;2.85;1.60;;;;;;;29.02;41.73;101540.28;5909391;29;20036;-68
2023/09/06 11:09:07;;;;;;;4.10;1.67;;;;;;;29.26;41.28;101530.88;5910641;29;20108;-68
2023/09/06 11:12:03;;;;;;;2.30;1.23;;;;;;;28.96;42.06;101530.34;5913764;29;20051;-70
2023/09/06 11:14:59;;;;;;;4.03;1.70;;;;;;;29.25;41.41;101545.59;5896277;29;20415;-69
2023/09/06 11:17:58;;;;;;;2.97;1.77;;;;;;;29.57;41.31;101534.06;5926017;29;20041;-69
2023/09/06 11:20:54;;;;;;;4.63;1.48;;;;;;;29.96;40.04;101542.03;5913222;29;20416;-69
2023/09/06 11:23:51;;;;;;;3.67;1.50;;;;;;;29.93;38.10;101536.22;5913113;29;20036;-67
2023/09/06 11:26:46;;;;;;;3.15;1.75;;;;;;;30.00;38.93;101525.94;5913787;29;20083;-70
2023/09/06 11:29:43;;;;;;;4.00;1.70;;;;;;;29.78;39.27;101544.22;5913430;29;20419;-68
2023/09/06 11:32:39;;;;;;;4.68;1.80;;;;;;;30.25;39.14;101550.88;5910674;29;20764;-69
2023/09/06 11:35:38;;;;;;;3.75;1.65;;;;;;;29.94;39.59;101535.16;5913158;29;20068;-70
2023/09/06 11:38:35;;;;;;;7.18;1.80;;;;;;;30.37;39.24;101543.38;5901765;29;20040;-71
2023/09/06 11:41:30;;;;;;;5.93;1.58;;;;;;;30.27;39.94;101540.50;5913147;29;20055;-70
2023/09/06 11:44:26;;;;;;;4.60;2.00;;;;;;;30.60;38.68;101536.78;5912074;29;20480;-69
2023/09/06 11:47:27;;;;;;;2.85;1.50;;;;;;;30.78;37.93;101554.75;5913700;29;20056;-69
2023/09/06 11:50:23;;;;;;;2.65;1.45;;;;;;;30.39;37.67;101543.94;5913396;29;20100;-72
2023/09/06 11:53:19;;;;;;;17.27;1.98;;;;;;;30.41;38.09;101539.03;5898429;29;20075;-69
2023/09/06 11:56:19;;;;;;;53.47;4.07;;;;;;;30.86;38.25;101540.59;5912918;29;20037;-69
2023/09/06 11:59:17;;;;;;;2.15;1.20;;;;;;;31.19;36.61;101543.09;5913226;29;20040;-69
2023/09/06 12:02:14;;;;;;;5.15;1.80;;;;;;;31.40;37.59;101525.69;5913018;29;20033;-68
2023/09/06 12:05:11;;;;;;;11.10;1.80;;;;;;;31.27;35.01;101517.94;5912324;29;20092;-69
2023/09/06 12:08:08;;;;;;;10.55;2.50;;;;;;;31.26;36.58;101530.00;5912784;29;20032;-67
2023/09/06 12:11:10;;;;;;;5.57;1.67;;;;;;;31.26;37.92;101530.00;5912896;29;20044;-70
2023/09/06 12:14:08;;;;;;;5.13;1.80;;;;;;;31.59;36.64;101529.69;5911648;29;20112;-68
2023/09/06 12:17:05;;;;;;;4.97;1.80;;;;;;;31.55;36.94;101520.38;5911743;29;20028;-70
2023/09/06 12:20:00;;;;;;;6.38;1.90;;;;;;;31.49;37.09;101526.91;5911551;29;20040;-70
2023/09/06 12:22:55;;;;;;;2.53;1.40;;;;;;;31.48;37.50;101521.66;5912814;29;20423;-70
2023/09/06 12:25:51;;;;;;;3.67;1.37;;;;;;;31.20;35.62;101520.09;5911956;29;20111;-70
2023/09/06 12:28:47;;;;;;;4.47;1.63;;;;;;;30.66;37.26;101519.31;5912420;29;20724;-70
2023/09/06 12:31:43;;;;;;;5.65;1.60;;;;;;;30.84;36.63;101499.75;5911914;29;20037;-70
2023/09/06 12:34:38;;;;;;;4.50;1.70;;;;;;;31.10;36.36;101509.88;5911353;29;20048;-68
2023/09/06 12:37:35;;;;;;;4.13;1.37;;;;;;;31.42;35.92;101511.75;5912225;29;20284;-69
2023/09/06 12:40:31;;;;;;;3.05;1.38;;;;;;;31.50;35.74;101509.34;5912423;29;20049;-68
2023/09/06 12:43:26;;;;;;;4.15;1.90;;;;;;;31.90;36.31;101491.44;5894713;29;20029;-69
2023/09/06 12:46:21;;;;;;;5.82;1.90;;;;;;;31.45;35.59;101479.09;5912160;29;20444;-73
2023/09/06 12:49:17;;;;;;;4.23;1.60;;;;;;;31.42;36.46;101496.09;5912116;29;20059;-70
2023/09/06 12:52:16;;;;;;;2.15;1.40;;;;;;;31.24;36.33;101478.16;5920071;29;20021;-69
2023/09/06 12:55:12;;;;;;;3.78;1.70;;;;;;;31.40;36.10;101470.84;5912070;29;20045;-69
2023/09/06 12:58:07;;;;;;;3.77;1.40;;;;;;;31.40;36.24;101479.09;5911858;29;20404;-71
2023/09/06 13:01:06;;;;;;;5.78;1.98;;;;;;;31.75;36.09;101478.47;5911535;29;20746;-70
2023/09/06 13:04:01;;;;;;;5.35;1.77;;;;;;;32.28;34.47;101466.34;5910736;29;20036;-71
2023/09/06 13:06:57;;;;;;;6.32;1.67;;;;;;;32.03;34.60;101453.38;5911470;29;20093;-72
2023/09/06 13:09:52;;;;;;;7.90;1.70;;;;;;;31.37;34.53;101438.47;5911739;29;20036;-70
2023/09/06 13:12:47;;;;;;;2.17;1.33;;;;;;;31.50;35.80;101459.97;5911537;29;20028;-70
2023/09/06 13:15:43;;;;;;;8.17;3.40;;;;;;;31.03;36.58;101476.38;5906796;29;20033;-69
2023/09/06 13:18:40;;;;;;;4.57;1.63;;;;;;;31.46;35.15;101458.00;5913733;29;20768;-71
2023/09/06 13:21:35;;;;;;;5.68;1.90;;;;;;;31.63;34.34;101470.47;5920198;29;20086;-69
2023/09/06 13:24:33;;;;;;;3.67;1.60;;;;;;;31.69;35.25;101455.66;5916494;29;20108;-69
2023/09/06 13:27:28;;;;;;;4.63;1.73;;;;;;;31.75;35.18;101472.97;5915890;29;20124;-70
2023/09/06 13:30:23;;;;;;;3.40;1.43;;;;;;;31.60;33.76;101451.81;5912020;29;20041;-71
2023/09/06 13:33:19;;;;;;;46.70;6.93;;;;;;;32.10;32.79;101453.09;5907266;29;20047;-69